Terminal Aerodrome Forecast
Issued by NWS Binghamton, NY

Home | Current Version | Previous Version | Text Only | Print | Product List | Glossary On
Versions: 1 2 3 4 5 6 7 8 9 10 11 12 13
000
FTUS41 KBGM 270543
TAFBGM
TAF
KBGM 270543Z 2706/2806 19005KT P6SM SCT060 BKN150
     FM271300 24010KT P6SM SCT040 BKN150
     FM280000 19005KT P6SM SCT060 BKN150=

USA.gov is the U.S. government's official web portal to all federal, state and local government web resources and services.